Mersa Matruh, Egypt
Current Conditions -  °F | °C
As of 10:00 PM on Saturday 25 Oct 2014 (Local Time) from HEMM Reporting Station
Clear Clear  
Wind Chill: 22°   Ceiling: Unl
Heat Index: 22°   Visibility: 6mi
Dew Point: 18°   Wind: 3mph
Humidity: 78%   Direction: 20°NNE
Pressure: 29.97"   Gusts: NA
Location:  31.32°N, 27.22°E
Report Text: HEMM 252000Z 02003KT CAVOK 22/18 Q1015 NOSIG
Loading
Personal Weather Stations






























Interactive Weather Map
Tropical Storm Tracking
New forecast layout! Learn more

10-Day Weather Forecast

Advertisements
Track Severe Weather on mobile